createdAt,value
2022-11-08T00:01:58.629Z,76.00
2022-11-08T00:03:58.541Z,76.00
2022-11-08T00:05:58.530Z,76.00
2022-11-08T00:07:58.520Z,76.00
2022-11-08T00:09:58.494Z,76.00
2022-11-08T00:11:58.587Z,76.00
2022-11-08T00:13:58.606Z,76.00
2022-11-08T00:15:58.537Z,76.00
2022-11-08T00:17:58.689Z,76.00
2022-11-08T00:19:58.676Z,76.00
2022-11-08T00:21:58.575Z,76.00
2022-11-08T00:23:58.579Z,76.00
2022-11-08T00:28:09.367Z,76.00
2022-11-08T00:30:09.452Z,76.00
2022-11-08T00:32:09.416Z,76.00
2022-11-08T00:34:09.364Z,76.00
2022-11-08T00:36:09.370Z,76.00
2022-11-08T00:38:09.538Z,76.00
2022-11-08T00:40:09.405Z,77.00
2022-11-08T00:42:09.437Z,77.00
2022-11-08T00:44:09.394Z,77.00
2022-11-08T00:46:09.415Z,77.00
2022-11-08T00:48:09.372Z,77.00
2022-11-08T00:50:09.402Z,77.00
2022-11-08T00:52:09.366Z,77.00
2022-11-08T00:54:09.412Z,77.00
2022-11-08T00:56:09.397Z,77.00
2022-11-08T00:58:09.445Z,76.00
2022-11-08T01:00:09.413Z,76.00
2022-11-08T01:02:09.455Z,76.00
2022-11-08T01:04:09.423Z,76.00
2022-11-08T01:06:09.380Z,76.00
2022-11-08T01:08:09.402Z,76.00
2022-11-08T01:10:09.436Z,76.00
2022-11-08T01:12:09.410Z,76.00
2022-11-08T01:14:09.474Z,76.00
2022-11-08T01:16:09.410Z,76.00
2022-11-08T01:18:09.382Z,76.00
2022-11-08T01:20:09.485Z,76.00
2022-11-08T01:22:09.426Z,76.00
2022-11-08T01:24:09.533Z,76.00
2022-11-08T01:26:09.454Z,76.00
2022-11-08T01:28:09.480Z,76.00
2022-11-08T01:30:09.401Z,76.00
2022-11-08T01:32:09.420Z,76.00
2022-11-08T01:34:39.446Z,76.00
2022-11-08T01:36:39.430Z,76.00
2022-11-08T01:38:39.430Z,76.00
2022-11-08T01:40:39.416Z,76.00
2022-11-08T01:42:39.457Z,76.00
2022-11-08T01:44:39.408Z,76.00
2022-11-08T01:46:39.529Z,76.00
2022-11-08T01:48:39.461Z,76.00
2022-11-08T01:50:39.442Z,76.00
2022-11-08T01:52:39.567Z,76.00
2022-11-08T01:54:39.435Z,76.00
2022-11-08T01:56:39.515Z,76.00
2022-11-08T01:58:39.447Z,76.00
2022-11-08T02:00:39.547Z,76.00
2022-11-08T02:02:39.497Z,76.00
2022-11-08T02:04:39.435Z,76.00
2022-11-08T02:06:39.424Z,76.00
2022-11-08T02:08:39.578Z,77.00
2022-11-08T02:10:39.469Z,77.00
2022-11-08T02:12:39.460Z,77.00
2022-11-08T02:14:39.490Z,77.00
2022-11-08T02:16:39.429Z,77.00
2022-11-08T02:18:39.479Z,77.00
2022-11-08T02:20:39.430Z,77.00
2022-11-08T02:22:39.442Z,77.00
2022-11-08T02:24:39.479Z,77.00
2022-11-08T02:26:39.449Z,77.00
2022-11-08T02:28:39.454Z,77.00
2022-11-08T02:30:39.483Z,77.00
2022-11-08T02:32:39.440Z,77.00
2022-11-08T02:34:39.449Z,77.00
2022-11-08T02:36:39.455Z,77.00
2022-11-08T02:38:39.467Z,77.00
2022-11-08T02:40:39.545Z,77.00
2022-11-08T02:42:39.443Z,77.00
2022-11-08T02:44:39.457Z,77.00
2022-11-08T02:46:39.576Z,77.00
2022-11-08T02:48:39.519Z,78.00
2022-11-08T02:50:39.496Z,78.00
2022-11-08T02:52:39.592Z,78.00
2022-11-08T02:54:39.457Z,78.00
2022-11-08T02:56:39.503Z,78.00
2022-11-08T02:58:39.520Z,78.00
2022-11-08T03:00:39.487Z,78.00
2022-11-08T03:02:39.549Z,78.00
2022-11-08T03:04:39.457Z,78.00
2022-11-08T03:06:39.471Z,78.00
2022-11-08T03:08:39.518Z,78.00
2022-11-08T03:10:39.534Z,78.00
2022-11-08T03:12:39.496Z,78.00
2022-11-08T03:14:39.475Z,79.00
2022-11-08T03:16:39.606Z,79.00
2022-11-08T03:18:39.466Z,79.00
2022-11-08T03:20:39.597Z,79.00
2022-11-08T03:22:39.513Z,79.00
2022-11-08T03:24:39.625Z,79.00
2022-11-08T03:26:39.483Z,79.00
2022-11-08T03:29:09.568Z,79.00
2022-11-08T03:31:09.476Z,79.00
2022-11-08T03:33:09.486Z,79.00
2022-11-08T03:35:09.475Z,79.00
2022-11-08T03:37:09.596Z,79.00
2022-11-08T03:39:09.486Z,79.00
2022-11-08T03:41:09.546Z,79.00
2022-11-08T03:43:09.509Z,79.00
2022-11-08T03:45:09.471Z,79.00
2022-11-08T03:47:09.550Z,79.00
2022-11-08T03:49:09.468Z,79.00
2022-11-08T03:51:09.517Z,79.00
2022-11-08T03:53:09.522Z,79.00
2022-11-08T03:55:09.548Z,79.00
2022-11-08T03:57:09.500Z,79.00
2022-11-08T03:59:09.501Z,79.00
2022-11-08T04:01:09.541Z,79.00
2022-11-08T04:03:09.517Z,79.00
2022-11-08T04:05:09.563Z,79.00
2022-11-08T04:07:09.547Z,79.00
2022-11-08T04:09:09.508Z,79.00
2022-11-08T04:11:09.532Z,80.00
2022-11-08T04:13:09.488Z,80.00
2022-11-08T04:15:09.539Z,80.00
2022-11-08T04:17:09.493Z,80.00
2022-11-08T04:19:09.479Z,80.00
2022-11-08T04:21:09.537Z,80.00
2022-11-08T04:23:09.511Z,80.00
2022-11-08T04:25:09.537Z,80.00
2022-11-08T04:27:09.559Z,80.00
2022-11-08T04:29:09.514Z,80.00
2022-11-08T04:31:09.572Z,80.00
2022-11-08T04:33:09.534Z,80.00
2022-11-08T04:35:09.508Z,80.00
2022-11-08T04:37:09.513Z,80.00
2022-11-08T04:39:09.678Z,80.00
2022-11-08T04:41:09.541Z,80.00
2022-11-08T04:43:09.506Z,81.00
2022-11-08T04:45:09.509Z,80.00
2022-11-08T04:47:09.519Z,80.00
2022-11-08T04:49:09.592Z,80.00
2022-11-08T04:51:09.532Z,80.00
2022-11-08T04:53:09.509Z,80.00
2022-11-08T04:55:09.664Z,79.00
2022-11-08T04:57:09.542Z,79.00
2022-11-08T04:59:11.936Z,79.00
2022-11-08T05:01:09.644Z,79.00
2022-11-08T05:03:09.509Z,78.00
2022-11-08T05:05:09.572Z,77.00
2022-11-08T05:07:09.639Z,77.00
2022-11-08T05:09:09.655Z,77.00
2022-11-08T05:11:09.589Z,77.00
2022-11-08T05:13:09.529Z,76.00
2022-11-08T05:15:09.678Z,76.00
2022-11-08T05:17:09.549Z,76.00
2022-11-08T05:19:13.175Z,76.00
2022-11-08T05:21:09.548Z,76.00
2022-11-08T05:23:09.575Z,76.00
2022-11-08T05:25:39.557Z,76.00
2022-11-08T05:27:39.532Z,76.00
2022-11-08T05:29:42.205Z,76.00
2022-11-08T05:31:39.557Z,75.00
2022-11-08T05:33:39.623Z,75.00
2022-11-08T05:35:39.624Z,75.00
2022-11-08T05:37:39.672Z,75.00
2022-11-08T05:39:39.659Z,75.00
2022-11-08T05:41:39.589Z,74.00
2022-11-08T05:43:39.627Z,74.00
2022-11-08T05:45:39.618Z,74.00
2022-11-08T05:47:39.637Z,74.00
2022-11-08T05:49:39.560Z,74.00
2022-11-08T05:51:39.561Z,74.00
2022-11-08T05:53:39.686Z,74.00
2022-11-08T05:55:39.860Z,74.00
2022-11-08T05:57:39.583Z,74.00
2022-11-08T05:59:39.642Z,74.00
2022-11-08T06:01:39.702Z,73.00
2022-11-08T06:03:39.715Z,73.00
2022-11-08T06:05:39.567Z,73.00
2022-11-08T06:07:39.653Z,73.00
2022-11-08T06:09:39.684Z,73.00
2022-11-08T06:11:39.594Z,73.00
2022-11-08T06:13:39.619Z,73.00
2022-11-08T06:15:39.602Z,73.00
2022-11-08T06:17:39.593Z,73.00
2022-11-08T06:19:39.613Z,73.00
2022-11-08T06:21:39.685Z,73.00
2022-11-08T06:23:39.610Z,73.00
2022-11-08T06:25:41.097Z,73.00
2022-11-08T06:27:39.590Z,73.00
2022-11-08T06:29:39.603Z,73.00
2022-11-08T06:31:42.820Z,72.00
2022-11-08T06:33:39.561Z,72.00
2022-11-08T06:35:39.721Z,72.00
2022-11-08T06:37:39.572Z,72.00
2022-11-08T06:39:39.602Z,72.00
2022-11-08T06:41:39.609Z,72.00
2022-11-08T06:43:39.620Z,72.00
2022-11-08T06:45:39.611Z,72.00
2022-11-08T06:47:39.605Z,72.00
2022-11-08T06:49:39.587Z,72.00
2022-11-08T06:51:39.710Z,72.00
2022-11-08T06:53:39.584Z,71.00
2022-11-08T06:55:39.582Z,71.00
2022-11-08T06:57:39.596Z,71.00
2022-11-08T06:59:39.646Z,71.00
2022-11-08T07:01:44.558Z,71.00
2022-11-08T07:03:39.584Z,71.00
2022-11-08T07:05:39.781Z,71.00
2022-11-08T07:07:39.588Z,70.00
2022-11-08T07:09:39.650Z,70.00
2022-11-08T07:11:39.705Z,70.00
2022-11-08T07:13:39.708Z,70.00
2022-11-08T07:15:39.698Z,70.00
2022-11-08T07:17:39.581Z,70.00
2022-11-08T07:20:09.640Z,70.00
2022-11-08T07:22:09.696Z,70.00
2022-11-08T07:24:09.623Z,70.00
2022-11-08T07:26:09.624Z,70.00
2022-11-08T07:28:09.716Z,70.00
2022-11-08T07:30:09.720Z,69.00
2022-11-08T07:32:09.619Z,69.00
2022-11-08T07:34:09.663Z,69.00
2022-11-08T07:36:09.643Z,69.00
2022-11-08T07:38:09.660Z,68.00
2022-11-08T07:40:09.738Z,68.00
2022-11-08T07:42:09.684Z,68.00
2022-11-08T07:44:09.675Z,68.00
2022-11-08T07:46:09.721Z,68.00
2022-11-08T07:48:11.617Z,68.00
2022-11-08T07:52:18.286Z,68.00
2022-11-08T07:54:18.314Z,68.00
2022-11-08T07:56:18.351Z,67.00
2022-11-08T07:58:18.251Z,67.00
2022-11-08T08:00:18.268Z,67.00
2022-11-08T08:02:18.339Z,67.00
2022-11-08T08:04:18.244Z,67.00
2022-11-08T08:06:18.326Z,67.00
2022-11-08T08:08:18.318Z,66.00
2022-11-08T08:10:18.347Z,66.00
2022-11-08T08:12:18.296Z,66.00
2022-11-08T08:14:18.398Z,66.00
2022-11-08T08:16:18.289Z,66.00
2022-11-08T08:18:18.279Z,65.00
2022-11-08T08:20:18.464Z,65.00
2022-11-08T08:22:18.365Z,65.00
2022-11-08T08:24:18.416Z,64.00
2022-11-08T08:26:18.289Z,64.00
2022-11-08T08:28:18.317Z,64.00
2022-11-08T08:30:18.296Z,64.00
2022-11-08T08:32:18.319Z,64.00
2022-11-08T08:34:18.279Z,64.00
2022-11-08T08:36:18.319Z,64.00
2022-11-08T08:38:18.275Z,63.00
2022-11-08T08:40:18.422Z,63.00
2022-11-08T08:42:18.302Z,63.00
2022-11-08T08:44:18.340Z,63.00
2022-11-08T08:46:18.346Z,63.00
2022-11-08T08:48:18.285Z,63.00
2022-11-08T08:50:18.325Z,63.00
2022-11-08T08:52:18.318Z,62.00
2022-11-08T08:54:18.391Z,62.00
2022-11-08T08:56:18.353Z,61.00
2022-11-08T08:58:18.397Z,61.00
2022-11-08T09:02:18.312Z,61.00
2022-11-08T09:04:18.305Z,61.00
2022-11-08T09:06:18.299Z,61.00
2022-11-08T09:08:18.308Z,61.00
2022-11-08T09:10:18.350Z,61.00
2022-11-08T09:12:18.365Z,61.00
2022-11-08T09:14:18.333Z,61.00
2022-11-08T09:16:18.368Z,60.00
2022-11-08T09:18:18.375Z,60.00
2022-11-08T09:20:18.388Z,60.00
2022-11-08T09:22:18.409Z,60.00
2022-11-08T09:24:18.342Z,60.00
2022-11-08T09:26:18.359Z,60.00
2022-11-08T09:28:18.460Z,60.00
2022-11-08T09:30:18.334Z,60.00
2022-11-08T09:32:24.849Z,60.00
2022-11-08T09:34:21.527Z,60.00
2022-11-08T09:36:18.352Z,60.00
2022-11-08T09:38:18.573Z,60.00
2022-11-08T09:40:18.373Z,61.00
2022-11-08T09:42:18.348Z,60.00
2022-11-08T09:44:18.435Z,59.00
2022-11-08T09:46:18.465Z,59.00
2022-11-08T09:48:18.375Z,59.00
2022-11-08T09:50:48.373Z,58.00
2022-11-08T09:52:48.323Z,58.00
2022-11-08T09:54:48.388Z,58.00
2022-11-08T09:56:48.407Z,57.00
2022-11-08T09:58:48.358Z,57.00
2022-11-08T10:00:48.358Z,57.00
2022-11-08T10:02:48.463Z,57.00
2022-11-08T10:04:48.343Z,57.00
2022-11-08T10:06:48.388Z,57.00
2022-11-08T10:08:48.349Z,57.00
2022-11-08T10:10:48.398Z,57.00
2022-11-08T10:12:48.450Z,57.00
2022-11-08T10:14:53.940Z,57.00
2022-11-08T10:16:48.365Z,57.00
2022-11-08T10:18:48.518Z,57.00
2022-11-08T10:20:48.376Z,57.00
2022-11-08T10:22:48.421Z,57.00
2022-11-08T10:24:48.425Z,57.00
2022-11-08T10:26:48.470Z,57.00
2022-11-08T10:28:48.481Z,56.00
2022-11-08T10:30:48.513Z,54.00
2022-11-08T10:32:48.421Z,54.00
2022-11-08T10:34:48.359Z,54.00
2022-11-08T10:36:48.415Z,53.00
2022-11-08T10:38:48.399Z,53.00
2022-11-08T10:40:48.407Z,52.00
2022-11-08T10:42:48.412Z,52.00
2022-11-08T10:44:48.370Z,51.00
2022-11-08T10:46:48.394Z,51.00
2022-11-08T10:48:48.408Z,51.00
2022-11-08T10:50:48.411Z,51.00
2022-11-08T10:52:48.476Z,51.00
2022-11-08T10:54:48.455Z,50.00
2022-11-08T10:56:48.414Z,50.00
2022-11-08T10:58:48.490Z,52.00
2022-11-08T11:00:48.401Z,52.00
2022-11-08T11:02:48.503Z,50.00
2022-11-08T11:04:48.529Z,51.00
2022-11-08T11:06:48.468Z,52.00
2022-11-08T11:08:48.503Z,51.00
2022-11-08T11:10:48.447Z,51.00
2022-11-08T11:12:48.521Z,52.00
2022-11-08T11:14:48.395Z,52.00
2022-11-08T11:16:48.452Z,52.00
2022-11-08T11:18:48.435Z,53.00
2022-11-08T11:20:48.426Z,53.00
2022-11-08T11:22:48.445Z,53.00
2022-11-08T11:24:48.515Z,53.00
2022-11-08T11:26:48.484Z,53.00
2022-11-08T11:28:48.487Z,53.00
2022-11-08T11:30:48.532Z,54.00
2022-11-08T11:32:48.552Z,55.00
2022-11-08T11:34:48.448Z,54.00
2022-11-08T11:36:48.526Z,54.00
2022-11-08T11:38:48.538Z,54.00
2022-11-08T11:40:48.538Z,53.00
2022-11-08T11:42:48.486Z,54.00
2022-11-08T11:44:48.680Z,54.00
2022-11-08T11:46:48.473Z,54.00
2022-11-08T11:48:48.558Z,54.00
2022-11-08T11:51:18.452Z,52.00
2022-11-08T11:53:18.598Z,52.00
2022-11-08T11:55:18.495Z,52.00
2022-11-08T11:57:18.430Z,50.00
2022-11-08T11:59:18.517Z,50.00
2022-11-08T12:01:18.438Z,50.00
2022-11-08T12:03:18.784Z,51.00
2022-11-08T12:05:18.580Z,50.00
2022-11-08T12:07:18.502Z,51.00
2022-11-08T12:09:18.513Z,51.00
2022-11-08T12:11:18.490Z,51.00
2022-11-08T12:13:18.628Z,52.00
2022-11-08T12:15:18.559Z,52.00
2022-11-08T12:17:18.559Z,52.00
2022-11-08T12:19:18.673Z,52.00
2022-11-08T12:21:18.563Z,52.00
2022-11-08T12:23:18.511Z,52.00
2022-11-08T12:25:18.469Z,53.00
2022-11-08T12:27:18.516Z,53.00
2022-11-08T12:29:18.519Z,53.00
2022-11-08T12:31:18.522Z,53.00
2022-11-08T12:33:18.493Z,54.00
2022-11-08T12:35:18.568Z,54.00
2022-11-08T12:37:18.603Z,54.00
2022-11-08T12:39:23.376Z,54.00
2022-11-08T12:41:18.615Z,55.00
2022-11-08T12:43:19.023Z,56.00
2022-11-08T12:45:18.581Z,56.00
2022-11-08T12:47:18.575Z,54.00
2022-11-08T12:49:18.592Z,54.00
2022-11-08T12:51:18.542Z,53.00
2022-11-08T12:53:18.488Z,54.00
2022-11-08T12:55:18.541Z,53.00
2022-11-08T12:57:18.507Z,53.00
2022-11-08T12:59:18.502Z,54.00
2022-11-08T13:01:18.568Z,54.00
2022-11-08T13:03:18.677Z,53.00
2022-11-08T13:05:18.495Z,53.00
2022-11-08T13:07:18.928Z,53.00
2022-11-08T13:09:18.504Z,53.00
2022-11-08T13:11:18.564Z,53.00
2022-11-08T13:13:18.542Z,51.00
2022-11-08T13:15:18.542Z,51.00
2022-11-08T13:17:18.530Z,51.00
2022-11-08T13:19:18.500Z,49.00
2022-11-08T13:21:18.536Z,48.00
2022-11-08T13:23:18.555Z,48.00
2022-11-08T13:25:18.564Z,48.00
2022-11-08T13:27:18.654Z,49.00
2022-11-08T13:29:18.536Z,47.00
2022-11-08T13:31:18.535Z,48.00
2022-11-08T13:33:18.564Z,49.00
2022-11-08T13:35:18.620Z,49.00
2022-11-08T13:37:18.547Z,49.00
2022-11-08T13:39:18.914Z,50.00
2022-11-08T13:41:18.522Z,49.00
2022-11-08T13:43:18.510Z,50.00
2022-11-08T13:45:18.554Z,50.00
2022-11-08T13:47:18.555Z,50.00
2022-11-08T13:49:18.524Z,49.00
2022-11-08T13:51:18.530Z,48.00
2022-11-08T13:53:18.529Z,49.00
2022-11-08T13:55:48.523Z,49.00
2022-11-08T13:57:48.632Z,49.00
2022-11-08T13:59:48.535Z,49.00
2022-11-08T14:01:48.646Z,49.00
2022-11-08T14:03:48.556Z,49.00
2022-11-08T14:05:48.604Z,48.00
2022-11-08T14:07:48.639Z,50.00
2022-11-08T14:09:48.550Z,49.00
2022-11-08T14:11:48.618Z,50.00
2022-11-08T14:13:48.599Z,50.00
2022-11-08T14:15:48.618Z,50.00
2022-11-08T14:17:48.619Z,49.00
2022-11-08T14:19:48.614Z,51.00
2022-11-08T14:21:48.730Z,51.00
2022-11-08T14:23:48.624Z,51.00
2022-11-08T14:25:48.691Z,54.00
2022-11-08T14:27:48.638Z,57.00
2022-11-08T14:29:48.635Z,57.00
2022-11-08T14:31:48.694Z,57.00
2022-11-08T14:33:48.664Z,58.00
2022-11-08T14:35:48.749Z,58.00
2022-11-08T14:37:48.620Z,58.00
2022-11-08T14:39:48.748Z,60.00
2022-11-08T14:41:48.619Z,60.00
2022-11-08T14:43:48.660Z,60.00
2022-11-08T14:45:48.712Z,60.00
2022-11-08T14:47:48.680Z,60.00
2022-11-08T14:49:48.793Z,61.00
2022-11-08T14:51:48.809Z,61.00
2022-11-08T14:55:48.819Z,61.00
2022-11-08T14:59:51.495Z,61.00
2022-11-08T15:01:48.667Z,61.00
2022-11-08T15:05:36.893Z,62.00
2022-11-08T15:08:06.909Z,63.00
2022-11-08T15:10:06.974Z,63.00
2022-11-08T15:12:06.955Z,63.00
2022-11-08T15:14:06.866Z,63.00
2022-11-08T15:16:07.039Z,64.00
2022-11-08T15:18:06.867Z,64.00
2022-11-08T15:20:06.956Z,64.00
2022-11-08T15:22:06.898Z,65.00
2022-11-08T15:24:07.012Z,65.00
2022-11-08T15:26:06.955Z,65.00
2022-11-08T15:28:06.986Z,65.00
2022-11-08T15:30:06.864Z,65.00
2022-11-08T15:32:06.881Z,65.00
2022-11-08T15:34:06.874Z,65.00
2022-11-08T15:36:06.907Z,66.00
2022-11-08T15:38:06.933Z,66.00
2022-11-08T15:40:06.851Z,66.00
2022-11-08T15:42:06.979Z,66.00
2022-11-08T15:44:06.849Z,66.00
2022-11-08T15:46:06.831Z,66.00
2022-11-08T15:48:06.872Z,66.00
2022-11-08T15:50:06.952Z,66.00
2022-11-08T15:52:06.927Z,66.00
2022-11-08T15:54:06.910Z,67.00
2022-11-08T15:56:07.085Z,67.00
2022-11-08T15:58:06.923Z,67.00
2022-11-08T16:00:06.913Z,67.00
2022-11-08T16:02:06.938Z,67.00
2022-11-08T16:04:06.878Z,67.00
2022-11-08T16:06:06.962Z,67.00
2022-11-08T16:08:06.931Z,67.00
2022-11-08T16:10:06.991Z,67.00
2022-11-08T16:12:07.025Z,67.00
2022-11-08T16:14:06.878Z,68.00
2022-11-08T16:16:06.884Z,68.00
2022-11-08T16:18:06.965Z,68.00
2022-11-08T16:20:06.943Z,68.00
2022-11-08T16:22:06.910Z,68.00
2022-11-08T16:24:07.007Z,68.00
2022-11-08T16:26:06.967Z,69.00
2022-11-08T16:28:08.970Z,69.00
2022-11-08T16:30:06.879Z,68.00
2022-11-08T16:32:06.964Z,68.00
2022-11-08T16:34:06.913Z,68.00
2022-11-08T16:36:06.944Z,68.00
2022-11-08T16:38:06.966Z,68.00
2022-11-08T16:40:07.012Z,68.00
2022-11-08T16:42:06.957Z,68.00
2022-11-08T16:44:06.891Z,68.00
2022-11-08T16:46:07.232Z,68.00
2022-11-08T16:48:06.909Z,68.00
2022-11-08T16:50:06.992Z,68.00
2022-11-08T16:52:06.939Z,68.00
2022-11-08T16:54:07.030Z,68.00
2022-11-08T16:56:06.990Z,69.00
2022-11-08T16:58:06.959Z,69.00
2022-11-08T17:00:06.960Z,69.00
2022-11-08T17:02:06.990Z,69.00
2022-11-08T17:04:06.853Z,69.00
2022-11-08T17:06:06.934Z,69.00
2022-11-08T17:08:36.959Z,69.00
2022-11-08T17:10:37.018Z,69.00
2022-11-08T17:12:36.978Z,69.00
2022-11-08T17:14:37.011Z,69.00
2022-11-08T17:16:36.957Z,69.00
2022-11-08T17:18:36.960Z,69.00
2022-11-08T17:20:36.981Z,69.00
2022-11-08T17:22:37.002Z,68.00
2022-11-08T17:24:36.987Z,68.00
2022-11-08T17:26:37.008Z,68.00
2022-11-08T17:28:37.022Z,68.00
2022-11-08T17:30:36.932Z,68.00
2022-11-08T17:32:36.923Z,68.00
2022-11-08T17:34:36.928Z,68.00
2022-11-08T17:36:36.919Z,68.00
2022-11-08T17:38:36.967Z,68.00
2022-11-08T17:40:37.045Z,68.00
2022-11-08T17:42:38.308Z,68.00
2022-11-08T17:44:37.049Z,68.00
2022-11-08T17:46:36.936Z,68.00
2022-11-08T17:48:36.922Z,68.00
2022-11-08T17:50:36.983Z,68.00
2022-11-08T17:52:36.968Z,68.00
2022-11-08T17:54:36.971Z,68.00
2022-11-08T17:56:36.998Z,68.00
2022-11-08T17:58:37.022Z,68.00
2022-11-08T18:00:37.112Z,68.00
2022-11-08T18:02:36.932Z,68.00
2022-11-08T18:04:36.943Z,68.00
2022-11-08T18:06:37.011Z,68.00
2022-11-08T18:08:37.012Z,68.00
2022-11-08T18:10:36.995Z,68.00
2022-11-08T18:12:37.060Z,68.00
2022-11-08T18:14:37.037Z,68.00
2022-11-08T18:16:36.967Z,68.00
2022-11-08T18:18:36.925Z,68.00
2022-11-08T18:20:37.024Z,68.00
2022-11-08T18:22:37.039Z,68.00
2022-11-08T18:24:37.028Z,68.00
2022-11-08T18:26:37.074Z,68.00
2022-11-08T18:28:37.069Z,68.00
2022-11-08T18:30:37.072Z,68.00
2022-11-08T18:32:37.037Z,68.00
2022-11-08T18:34:37.078Z,68.00
2022-11-08T18:36:37.000Z,68.00
2022-11-08T18:38:36.999Z,67.00
2022-11-08T18:40:37.022Z,67.00
2022-11-08T18:42:37.049Z,67.00
2022-11-08T18:44:37.065Z,67.00
2022-11-08T18:46:41.826Z,67.00
2022-11-08T18:48:36.980Z,67.00
2022-11-08T18:50:36.993Z,67.00
2022-11-08T18:52:37.001Z,67.00
2022-11-08T18:54:37.021Z,66.00
2022-11-08T18:56:37.059Z,66.00
2022-11-08T18:58:37.094Z,66.00
2022-11-08T19:00:37.093Z,66.00
2022-11-08T19:02:36.954Z,66.00
2022-11-08T19:04:37.031Z,66.00
2022-11-08T19:06:37.057Z,66.00
2022-11-08T19:09:07.043Z,66.00
2022-11-08T19:11:07.050Z,66.00
2022-11-08T19:13:07.082Z,66.00
2022-11-08T19:15:07.067Z,66.00
2022-11-08T19:17:07.076Z,66.00
2022-11-08T19:19:07.000Z,66.00
2022-11-08T19:21:07.028Z,66.00
2022-11-08T19:23:07.057Z,66.00
2022-11-08T19:25:07.077Z,66.00
2022-11-08T19:27:07.058Z,66.00
2022-11-08T19:29:07.073Z,66.00
2022-11-08T19:31:07.099Z,66.00
2022-11-08T19:33:07.120Z,66.00
2022-11-08T19:35:07.085Z,66.00
2022-11-08T19:37:07.033Z,66.00
2022-11-08T19:39:07.070Z,65.00
2022-11-08T19:41:07.084Z,65.00
2022-11-08T19:43:07.079Z,65.00
2022-11-08T19:45:09.662Z,65.00
2022-11-08T19:47:07.101Z,65.00
2022-11-08T19:49:06.982Z,65.00
2022-11-08T19:51:07.061Z,65.00
2022-11-08T19:53:07.792Z,65.00
2022-11-08T19:55:07.079Z,66.00
2022-11-08T19:57:07.063Z,66.00
2022-11-08T19:59:07.071Z,66.00
2022-11-08T20:01:07.105Z,66.00
2022-11-08T20:03:07.133Z,66.00
2022-11-08T20:05:07.035Z,66.00
2022-11-08T20:07:07.071Z,66.00
2022-11-08T20:09:07.036Z,66.00
2022-11-08T20:11:07.092Z,67.00
2022-11-08T20:13:07.092Z,67.00
2022-11-08T20:15:07.126Z,67.00
2022-11-08T20:17:07.107Z,67.00
2022-11-08T20:19:07.009Z,67.00
2022-11-08T20:21:07.043Z,67.00
2022-11-08T20:23:07.051Z,67.00
2022-11-08T20:25:07.101Z,67.00
2022-11-08T20:27:07.230Z,67.00
2022-11-08T20:29:07.097Z,67.00
2022-11-08T20:31:07.173Z,67.00
2022-11-08T20:33:07.143Z,67.00
2022-11-08T20:35:08.655Z,67.00
2022-11-08T20:37:07.095Z,67.00
2022-11-08T20:39:07.981Z,67.00
2022-11-08T20:41:07.105Z,67.00
2022-11-08T20:43:07.079Z,67.00
2022-11-08T20:45:12.043Z,67.00
2022-11-08T20:47:07.086Z,67.00
2022-11-08T20:49:07.151Z,67.00
2022-11-08T20:51:07.097Z,67.00
2022-11-08T20:53:07.071Z,67.00
2022-11-08T20:55:07.100Z,66.00
2022-11-08T20:57:07.120Z,66.00
2022-11-08T20:59:07.156Z,66.00
2022-11-08T21:01:07.076Z,66.00
2022-11-08T21:03:07.168Z,66.00
2022-11-08T21:05:37.106Z,66.00
2022-11-08T21:08:01.762Z,66.00
2022-11-08T21:09:48.967Z,66.00
2022-11-08T21:11:37.103Z,66.00
2022-11-08T21:13:37.138Z,66.00
2022-11-08T21:15:37.193Z,66.00
2022-11-08T21:17:37.162Z,66.00
2022-11-08T21:19:37.209Z,66.00
2022-11-08T21:21:37.075Z,66.00
2022-11-08T21:23:37.064Z,66.00
2022-11-08T21:25:37.107Z,66.00
2022-11-08T21:27:37.115Z,66.00
2022-11-08T21:29:37.159Z,66.00
2022-11-08T21:31:37.091Z,66.00
2022-11-08T21:33:37.184Z,66.00
2022-11-08T21:35:37.128Z,66.00
2022-11-08T21:37:37.108Z,66.00
2022-11-08T21:39:37.128Z,66.00
2022-11-08T21:41:37.124Z,66.00
2022-11-08T21:43:37.141Z,66.00
2022-11-08T21:45:37.222Z,66.00
2022-11-08T21:47:37.206Z,66.00
2022-11-08T21:49:37.183Z,66.00
2022-11-08T21:51:37.118Z,66.00
2022-11-08T21:53:45.156Z,66.00
2022-11-08T21:55:37.147Z,66.00
2022-11-08T21:57:37.142Z,66.00
2022-11-08T21:59:37.165Z,66.00
2022-11-08T22:01:37.245Z,65.00
2022-11-08T22:03:37.162Z,65.00
2022-11-08T22:05:37.098Z,65.00
2022-11-08T22:07:37.209Z,65.00
2022-11-08T22:09:37.218Z,65.00
2022-11-08T22:11:37.136Z,65.00
2022-11-08T22:13:37.176Z,65.00
2022-11-08T22:15:37.243Z,65.00
2022-11-08T22:19:37.165Z,66.00
2022-11-08T22:21:37.248Z,66.00
2022-11-08T22:23:37.221Z,65.00
2022-11-08T22:29:45.517Z,64.00
2022-11-08T22:31:45.467Z,64.00
2022-11-08T22:33:45.466Z,65.00
2022-11-08T22:35:45.424Z,65.00
2022-11-08T22:37:45.544Z,65.00
2022-11-08T22:39:45.427Z,65.00
2022-11-08T22:41:45.419Z,65.00
2022-11-08T22:43:45.429Z,65.00
2022-11-08T22:45:45.429Z,65.00
2022-11-08T22:47:45.422Z,65.00
2022-11-08T22:49:45.495Z,65.00
2022-11-08T22:51:45.496Z,65.00
2022-11-08T22:53:45.457Z,65.00
2022-11-08T22:55:45.600Z,65.00
2022-11-08T22:57:45.478Z,65.00
2022-11-08T22:59:45.449Z,65.00
2022-11-08T23:01:45.486Z,65.00
2022-11-08T23:03:45.526Z,65.00
2022-11-08T23:05:45.456Z,65.00
2022-11-08T23:07:45.569Z,65.00
2022-11-08T23:09:45.446Z,65.00
2022-11-08T23:11:45.461Z,65.00
2022-11-08T23:13:45.492Z,65.00
2022-11-08T23:15:45.475Z,65.00
2022-11-08T23:17:45.447Z,65.00
2022-11-08T23:19:45.451Z,65.00
2022-11-08T23:21:45.491Z,65.00
2022-11-08T23:23:45.466Z,66.00
2022-11-08T23:25:45.680Z,66.00
2022-11-08T23:27:45.485Z,66.00
2022-11-08T23:29:45.451Z,66.00
2022-11-08T23:32:15.556Z,66.00
2022-11-08T23:34:15.448Z,66.00
2022-11-08T23:36:15.575Z,66.00
2022-11-08T23:38:20.097Z,66.00
2022-11-08T23:40:15.608Z,66.00
2022-11-08T23:42:15.456Z,66.00
2022-11-08T23:44:15.605Z,66.00
2022-11-08T23:46:15.458Z,67.00
2022-11-08T23:48:15.546Z,67.00
2022-11-08T23:50:15.546Z,67.00
2022-11-08T23:52:15.479Z,66.00
2022-11-08T23:54:15.521Z,66.00
2022-11-08T23:56:15.574Z,66.00
2022-11-08T23:58:15.498Z,67.00
